Time;durP1;ratioP1;P1;durP2;ratioP2;P2;SDS_P1;SDS_P2;PMS_P1;PMS_P2;Temp;Humidity;BMP_temperature;BMP_pressure;BME280_temperature;BME280_humidity;BME280_pressure;Samples;Min_cycle;Max_cycle;Signal;HPM_P1;HPM_P2
2021/01/18 00:02:04;;;;;;;6.85;3.22;;;25.80;61.60;;;;;;5074469;28;20021;-54
2021/01/18 00:04:31;;;;;;;7.47;3.33;;;25.90;62.50;;;;;;5074261;28;20364;-57
2021/01/18 00:06:59;;;;;;;8.98;3.83;;;25.90;61.90;;;;;;5073774;28;20024;-52
2021/01/18 00:09:26;;;;;;;10.57;3.40;;;26.00;61.90;;;;;;5073747;28;20032;-52
2021/01/18 00:11:53;;;;;;;16.02;4.03;;;26.00;62.50;;;;;;5073863;28;20050;-55
2021/01/18 00:14:21;;;;;;;8.65;3.47;;;26.00;61.30;;;;;;5073630;28;20125;-54
2021/01/18 00:16:48;;;;;;;8.88;4.07;;;26.00;61.70;;;;;;5073489;28;20108;-53
2021/01/18 00:19:16;;;;;;;8.60;3.25;;;26.00;62.40;;;;;;5073933;28;20064;-55
2021/01/18 00:21:46;;;;;;;7.00;3.28;;;26.10;62.20;;;;;;5074039;28;20044;-53
2021/01/18 00:24:14;;;;;;;7.85;2.85;;;26.10;62.00;;;;;;5073975;28;20032;-54
2021/01/18 00:26:45;;;;;;;9.60;3.78;;;26.20;61.50;;;;;;5074031;28;20068;-50
2021/01/18 00:29:13;;;;;;;6.47;2.75;;;26.30;59.70;;;;;;5073805;28;20501;-56
2021/01/18 00:31:45;;;;;;;11.73;3.55;;;26.30;61.60;;;;;;5073376;28;20036;-56
2021/01/18 00:34:12;;;;;;;8.38;3.45;;;26.40;61.10;;;;;;5073741;28;20328;-51
2021/01/18 00:36:48;;;;;;;9.77;3.30;;;26.50;60.10;;;;;;5073865;28;20021;-54
2021/01/18 00:39:16;;;;;;;11.50;3.50;;;26.60;60.60;;;;;;5073791;28;20086;-58
2021/01/18 00:41:43;;;;;;;9.10;3.60;;;26.60;60.10;;;;;;5073106;28;20032;-54
2021/01/18 00:44:11;;;;;;;9.65;3.63;;;26.70;60.40;;;;;;5073197;28;20029;-55
2021/01/18 00:46:38;;;;;;;6.13;3.38;;;26.80;60.20;;;;;;5073382;28;20047;-57
2021/01/18 00:49:05;;;;;;;9.38;4.07;;;26.80;59.70;;;;;;5073660;28;20032;-51
2021/01/18 00:51:37;;;;;;;7.25;3.45;;;26.80;60.40;;;;;;5072960;28;20024;-49
2021/01/18 00:54:04;;;;;;;;;;;26.90;59.30;;;;;;5073665;28;20025;-53
2021/01/18 00:56:31;;;;;;;5.80;2.55;;;26.90;59.40;;;;;;5073278;28;20007;-56
2021/01/18 00:58:59;;;;;;;10.23;3.22;;;27.00;60.00;;;;;;5072797;28;20036;-54
2021/01/18 01:01:26;;;;;;;6.72;3.22;;;27.00;58.80;;;;;;5071417;28;20023;-58
2021/01/18 01:03:54;;;;;;;10.68;3.90;;;27.00;59.90;;;;;;5073280;28;20028;-54
2021/01/18 01:06:21;;;;;;;11.30;3.33;;;27.00;60.20;;;;;;5072929;28;20526;-54
2021/01/18 01:08:48;;;;;;;13.27;3.10;;;27.20;60.80;;;;;;5073025;28;20035;-55
2021/01/18 01:11:16;;;;;;;14.70;3.85;;;27.20;61.00;;;;;;5072996;28;20024;-58
2021/01/18 01:13:43;;;;;;;11.13;3.60;;;27.30;59.90;;;;;;5054792;28;20052;-63
2021/01/18 01:16:11;;;;;;;9.55;3.13;;;27.30;60.10;;;;;;5072869;28;20105;-58
2021/01/18 01:18:38;;;;;;;8.23;3.20;;;27.40;59.60;;;;;;5072282;28;20024;-59
2021/01/18 01:21:05;;;;;;;7.65;3.15;;;27.50;59.50;;;;;;5072404;28;20068;-54
2021/01/18 01:23:33;;;;;;;8.20;3.03;;;27.40;59.40;;;;;;5072591;28;20050;-56
2021/01/18 01:26:01;;;;;;;11.88;2.63;;;27.50;60.20;;;;;;5072456;28;20365;-56
2021/01/18 01:28:28;;;;;;;9.60;3.28;;;27.50;60.00;;;;;;5072846;28;20059;-58
2021/01/18 01:30:56;;;;;;;9.80;3.25;;;27.50;59.70;;;;;;5069212;28;20024;-57
2021/01/18 01:33:23;;;;;;;4.95;2.80;;;27.50;59.90;;;;;;5072146;28;20438;-54
2021/01/18 01:35:50;;;;;;;7.53;3.28;;;27.40;59.50;;;;;;5072381;28;20016;-56
2021/01/18 01:38:18;;;;;;;9.15;3.65;;;27.40;59.70;;;;;;5072489;28;20058;-56
2021/01/18 01:40:45;;;;;;;10.48;3.45;;;27.40;60.30;;;;;;5071523;28;20021;-55
2021/01/18 01:43:12;;;;;;;5.43;2.55;;;27.50;60.50;;;;;;5072014;28;20035;-61
2021/01/18 01:45:40;;;;;;;7.82;3.60;;;27.50;60.50;;;;;;5072085;28;20378;-54
2021/01/18 01:48:08;;;;;;;8.13;3.05;;;27.50;60.50;;;;;;5071682;28;20027;-62
2021/01/18 01:50:38;;;;;;;9.02;3.45;;;27.60;60.10;;;;;;5072159;28;20060;-59
2021/01/18 01:53:24;;;;;;;7.88;3.10;;;27.50;61.20;;;;;;5072203;28;20073;-63
2021/01/18 01:55:52;;;;;;;10.25;3.25;;;27.50;60.60;;;;;;5071732;28;20089;-59
2021/01/18 01:58:19;;;;;;;9.52;3.53;;;27.50;60.90;;;;;;5072005;28;20021;-54
2021/01/18 02:00:47;;;;;;;13.25;3.28;;;27.60;60.60;;;;;;5071889;28;20043;-56
2021/01/18 02:03:17;;;;;;;11.40;3.50;;;27.60;60.40;;;;;;5071626;28;20413;-57
2021/01/18 02:05:45;;;;;;;8.52;3.28;;;27.60;60.10;;;;;;5071367;28;20024;-60
2021/01/18 02:08:12;;;;;;;12.23;3.47;;;27.60;60.90;;;;;;5071764;28;20059;-60
2021/01/18 02:10:42;;;;;;;11.35;4.25;;;27.60;60.40;;;;;;5071837;28;20028;-60
2021/01/18 02:13:30;;;;;;;7.43;2.85;;;27.60;60.90;;;;;;5071482;28;20032;-53
2021/01/18 02:16:08;;;;;;;10.43;3.45;;;27.70;60.70;;;;;;5071810;28;20024;-55
2021/01/18 02:18:59;;;;;;;7.65;2.92;;;27.70;60.80;;;;;;5071305;28;20039;-54
2021/01/18 02:21:47;;;;;;;10.27;3.53;;;27.70;61.00;;;;;;5069352;28;20053;-57
2021/01/18 02:24:32;;;;;;;15.60;3.42;;;27.60;61.10;;;;;;5071452;28;20128;-56
2021/01/18 02:27:21;;;;;;;7.93;2.80;;;27.60;61.70;;;;;;5071170;28;20024;-62
2021/01/18 02:29:59;;;;;;;9.27;3.60;;;27.50;61.90;;;;;;5070956;28;20132;-60
2021/01/18 02:32:42;;;;;;;7.32;2.50;;;27.50;61.90;;;;;;5070868;28;20062;-60
2021/01/18 02:35:12;;;;;;;9.07;2.60;;;27.50;61.90;;;;;;5071018;28;20359;-57
2021/01/18 02:37:43;;;;;;;9.45;3.00;;;27.60;61.60;;;;;;5069091;28;20016;-59
2021/01/18 02:40:19;;;;;;;8.95;2.95;;;27.60;62.10;;;;;;5070815;28;20059;-55
2021/01/18 02:42:54;;;;;;;11.48;3.38;;;27.60;61.90;;;;;;5071066;28;20036;-58
2021/01/18 02:45:23;;;;;;;9.23;3.05;;;27.70;62.00;;;;;;5071319;28;20029;-58
2021/01/18 02:47:51;;;;;;;9.27;3.35;;;27.70;61.50;;;;;;5071368;28;20029;-61
2021/01/18 02:50:20;;;;;;;5.90;2.42;;;27.70;61.30;;;;;;5071590;28;20035;-58
2021/01/18 02:52:47;;;;;;;8.10;3.08;;;27.80;61.60;;;;;;5070816;28;20309;-58
2021/01/18 02:55:16;;;;;;;12.10;3.30;;;27.80;61.50;;;;;;5071805;28;20380;-62
2021/01/18 02:57:48;;;;;;;17.90;3.90;;;27.90;60.90;;;;;;5071418;28;20043;-62
2021/01/18 03:00:29;;;;;;;16.20;4.40;;;28.00;61.30;;;;;;5071198;28;20064;-59
2021/01/18 03:03:08;;;;;;;8.38;2.38;;;28.20;60.80;;;;;;5063969;28;20340;-57
2021/01/18 03:05:38;;;;;;;16.35;3.58;;;28.10;61.20;;;;;;5067605;28;20029;-61
2021/01/18 03:08:33;;;;;;;9.82;3.08;;;28.20;61.00;;;;;;5067059;28;20036;-58
2021/01/18 03:11:22;;;;;;;9.10;2.50;;;28.20;60.60;;;;;;5067711;28;20096;-55
2021/01/18 03:14:13;;;;;;;10.13;2.25;;;28.30;61.20;;;;;;5066072;28;20025;-57
2021/01/18 03:16:43;;;;;;;10.43;2.90;;;28.30;60.90;;;;;;5066419;28;20070;-57
2021/01/18 03:19:11;;;;;;;9.68;3.17;;;28.20;61.20;;;;;;5066545;28;20102;-58
2021/01/18 03:21:46;;;;;;;7.13;2.72;;;28.30;61.10;;;;;;5067855;28;20131;-60
2021/01/18 03:24:21;;;;;;;8.32;3.05;;;28.20;61.20;;;;;;5066223;28;20066;-53
2021/01/18 03:26:49;;;;;;;10.25;2.28;;;28.30;61.20;;;;;;5068562;28;20051;-57
2021/01/18 03:29:16;;;;;;;14.55;3.05;;;28.40;61.40;;;;;;5064757;28;20390;-52
2021/01/18 03:31:44;;;;;;;10.57;2.90;;;28.30;60.80;;;;;;5067687;28;20704;-49
2021/01/18 03:34:11;;;;;;;7.75;2.88;;;28.40;61.30;;;;;;5068462;28;20040;-54
2021/01/18 03:36:38;;;;;;;15.48;3.10;;;28.40;61.40;;;;;;5065303;28;20027;-55
2021/01/18 03:39:06;;;;;;;7.57;2.75;;;28.30;61.30;;;;;;5063586;28;20021;-52
2021/01/18 03:41:33;;;;;;;11.20;3.38;;;28.20;61.80;;;;;;5066766;28;20079;-55
2021/01/18 03:44:01;;;;;;;10.93;3.10;;;28.30;61.50;;;;;;5066519;28;20055;-62
2021/01/18 03:46:28;;;;;;;11.77;3.10;;;28.30;61.60;;;;;;5067198;28;20035;-56
2021/01/18 03:48:55;;;;;;;8.73;3.20;;;28.40;61.20;;;;;;5063077;28;20075;-56
2021/01/18 03:51:30;;;;;;;9.13;3.33;;;28.50;61.20;;;;;;5068115;28;20016;-59
2021/01/18 03:53:58;;;;;;;9.00;2.60;;;28.50;61.30;;;;;;5066260;28;20119;-56
2021/01/18 03:56:25;;;;;;;9.15;2.75;;;28.50;61.10;;;;;;5067483;28;20032;-55
2021/01/18 03:58:53;;;;;;;8.73;2.67;;;28.50;61.10;;;;;;5064533;28;20086;-56
2021/01/18 04:01:20;;;;;;;10.82;2.45;;;28.50;61.10;;;;;;5067614;28;20077;-63
2021/01/18 04:03:47;;;;;;;6.72;2.60;;;28.50;61.30;;;;;;5068811;28;20016;-59
2021/01/18 04:06:15;;;;;;;11.13;2.40;;;28.40;61.80;;;;;;5071314;28;20114;-59
2021/01/18 04:08:42;;;;;;;9.60;2.40;;;28.40;61.30;;;;;;5067104;28;20028;-58
2021/01/18 04:11:09;;;;;;;9.48;2.90;;;28.40;61.60;;;;;;5069036;28;20584;-60
2021/01/18 04:13:37;;;;;;;6.97;2.20;;;28.50;61.20;;;;;;5071130;28;20043;-54
2021/01/18 04:16:04;;;;;;;6.90;2.67;;;28.50;61.20;;;;;;5069766;28;20070;-54
2021/01/18 04:18:32;;;;;;;11.20;2.78;;;28.50;61.10;;;;;;5067610;28;20048;-55
2021/01/18 04:20:59;;;;;;;10.32;2.55;;;28.50;61.10;;;;;;5070092;28;20123;-57
2021/01/18 04:23:26;;;;;;;9.70;2.85;;;28.50;61.20;;;;;;5070615;28;20025;-56
2021/01/18 04:25:54;;;;;;;10.63;2.47;;;28.50;61.10;;;;;;5070920;28;20043;-55
2021/01/18 04:28:21;;;;;;;7.03;2.60;;;28.50;60.90;;;;;;5072249;28;20024;-64
2021/01/18 04:30:48;;;;;;;8.30;3.08;;;28.40;61.30;;;;;;5074284;28;20530;-56
2021/01/18 04:33:19;;;;;;;8.88;2.78;;;28.40;61.30;;;;;;5073785;28;20414;-56
2021/01/18 04:35:46;;;;;;;6.07;2.67;;;28.40;61.40;;;;;;5073539;28;20029;-55
2021/01/18 04:38:13;;;;;;;7.70;2.78;;;28.50;61.60;;;;;;5073843;28;20074;-63
2021/01/18 04:40:42;;;;;;;8.18;2.58;;;28.40;61.70;;;;;;5074011;28;20024;-60
2021/01/18 04:43:13;;;;;;;6.95;2.83;;;28.40;61.60;;;;;;5073328;28;20438;-56
2021/01/18 04:45:41;;;;;;;11.48;3.38;;;28.40;61.60;;;;;;5073371;28;20032;-62
2021/01/18 04:48:08;;;;;;;8.13;2.72;;;28.40;62.00;;;;;;5073564;28;20328;-65
2021/01/18 04:50:36;;;;;;;5.93;2.60;;;28.50;61.70;;;;;;5073980;28;20016;-65
2021/01/18 04:53:16;;;;;;;7.28;2.35;;;28.50;61.30;;;;;;5073647;28;20020;-59
2021/01/18 04:55:43;;;;;;;7.78;2.67;;;28.50;61.50;;;;;;5072510;28;20028;-57
2021/01/18 04:58:16;;;;;;;6.78;2.30;;;28.40;61.70;;;;;;5073216;28;20028;-56
2021/01/18 05:00:47;;;;;;;11.57;2.65;;;28.40;61.60;;;;;;5073721;28;20032;-66
2021/01/18 05:03:20;;;;;;;6.82;2.72;;;28.50;61.60;;;;;;5073413;28;20035;-63
2021/01/18 05:06:01;;;;;;;8.45;2.63;;;28.40;61.70;;;;;;5072889;28;20085;-63
2021/01/18 05:08:31;;;;;;;13.05;3.05;;;28.40;61.80;;;;;;5073506;28;20086;-61
2021/01/18 05:11:01;;;;;;;5.88;2.05;;;28.40;62.10;;;;;;5071512;28;20028;-66
2021/01/18 05:13:31;;;;;;;7.20;2.15;;;28.30;62.00;;;;;;5072832;28;20024;-60
2021/01/18 05:16:01;;;;;;;6.53;2.45;;;28.30;62.30;;;;;;5071901;28;20073;-59
2021/01/18 05:18:41;;;;;;;7.60;2.63;;;28.30;62.30;;;;;;5072965;28;20459;-68
2021/01/18 05:21:10;;;;;;;10.32;3.30;;;28.20;62.70;;;;;;5071270;28;20126;-61
2021/01/18 05:23:41;;;;;;;5.22;1.75;;;28.20;62.60;;;;;;5072664;28;20029;-58
2021/01/18 05:26:25;;;;;;;7.47;2.88;;;28.10;62.80;;;;;;5072595;28;20032;-66
2021/01/18 05:28:55;;;;;;;10.90;2.53;;;28.10;63.10;;;;;;5072881;28;20052;-57
2021/01/18 05:31:28;;;;;;;14.80;3.22;;;28.00;63.20;;;;;;5072734;28;20427;-62
2021/01/18 05:34:03;;;;;;;34.00;5.03;;;28.00;63.50;;;;;;5071292;28;20024;-64
2021/01/18 05:36:38;;;;;;;26.05;3.75;;;27.90;63.90;;;;;;5073433;28;20024;-55
2021/01/18 05:39:20;;;;;;;19.25;3.53;;;27.90;64.10;;;;;;5072289;28;20036;-57
2021/01/18 05:41:49;;;;;;;22.52;3.42;;;27.90;64.00;;;;;;5071922;28;20025;-58
2021/01/18 05:44:17;;;;;;;13.82;3.28;;;27.90;64.20;;;;;;5072794;28;20502;-59
2021/01/18 05:46:47;;;;;;;14.25;3.67;;;27.80;64.40;;;;;;5072461;28;20024;-63
2021/01/18 05:49:19;;;;;;;17.60;3.85;;;27.80;64.40;;;;;;5072553;28;20111;-58
2021/01/18 05:51:52;;;;;;;28.63;4.38;;;27.80;64.80;;;;;;5072624;28;20528;-56
2021/01/18 05:54:24;;;;;;;22.30;4.25;;;27.80;64.70;;;;;;5072504;28;20047;-57
2021/01/18 05:56:53;;;;;;;17.00;3.03;;;27.80;65.00;;;;;;5058565;28;20039;-66
2021/01/18 05:59:23;;;;;;;13.10;3.42;;;27.80;64.90;;;;;;5068840;28;20147;-59
2021/01/18 06:01:53;;;;;;;20.90;4.10;;;27.90;64.80;;;;;;5069166;28;20036;-59
2021/01/18 06:04:22;;;;;;;15.55;3.65;;;27.80;64.80;;;;;;5069515;28;20025;-57
2021/01/18 06:06:58;;;;;;;17.08;3.53;;;27.90;65.30;;;;;;5066729;28;20082;-59
2021/01/18 06:09:46;;;;;;;18.38;3.65;;;27.90;64.90;;;;;;5068811;28;20555;-61
2021/01/18 06:12:40;;;;;;;16.67;3.80;;;27.90;65.20;;;;;;5067356;28;20108;-54
2021/01/18 06:15:12;;;;;;;17.40;4.38;;;27.90;65.20;;;;;;5062591;28;20059;-54
2021/01/18 06:17:50;;;;;;;16.13;3.63;;;27.90;65.40;;;;;;5068441;28;20029;-55
2021/01/18 06:20:23;;;;;;;15.80;3.28;;;27.90;65.50;;;;;;5066241;28;20040;-54
2021/01/18 06:22:58;;;;;;;17.38;3.75;;;27.90;65.10;;;;;;5068619;28;20024;-57
2021/01/18 06:25:34;;;;;;;19.27;3.97;;;27.90;65.10;;;;;;5062882;28;20135;-61
2021/01/18 06:28:01;;;;;;;20.02;4.07;;;27.90;64.90;;;;;;5069779;28;20120;-59
2021/01/18 06:30:33;;;;;;;18.17;3.80;;;27.90;65.10;;;;;;5068821;28;20408;-57
2021/01/18 06:33:18;;;;;;;21.23;4.45;;;27.80;64.80;;;;;;5068494;28;20033;-58
2021/01/18 06:35:45;;;;;;;16.17;3.47;;;27.90;65.20;;;;;;5065750;28;20044;-64
2021/01/18 06:38:21;;;;;;;16.50;4.63;;;27.80;65.10;;;;;;5068385;28;20029;-58
2021/01/18 06:40:58;;;;;;;18.52;3.88;;;27.80;65.20;;;;;;5069457;28;20052;-62
2021/01/18 06:43:26;;;;;;;9.13;3.17;;;27.70;65.10;;;;;;5068226;28;20479;-59
2021/01/18 06:45:53;;;;;;;33.92;22.75;;;27.70;65.40;;;;;;5063482;28;20059;-57
2021/01/18 06:48:21;;;;;;;21.50;12.98;;;27.70;65.90;;;;;;5065960;28;20112;-57
2021/01/18 06:50:48;;;;;;;18.38;12.32;;;27.60;65.80;;;;;;5068593;28;20025;-54
2021/01/18 06:53:24;;;;;;;19.77;9.95;;;27.60;65.60;;;;;;5068410;28;20071;-54
2021/01/18 06:56:21;;;;;;;19.23;12.73;;;27.60;65.90;;;;;;5065155;28;20029;-54
2021/01/18 06:59:09;;;;;;;20.40;10.00;;;27.60;65.90;;;;;;5068617;28;20186;-55
2021/01/18 07:01:39;;;;;;;18.50;11.30;;;27.60;65.60;;;;;;5066608;28;20016;-57
2021/01/18 07:04:08;;;;;;;19.48;13.48;;;27.60;65.40;;;;;;5066168;28;20036;-54
2021/01/18 07:06:36;;;;;;;18.30;12.23;;;27.60;65.40;;;;;;5063242;28;20036;-53
2021/01/18 07:09:21;;;;;;;20.40;11.10;;;27.60;65.70;;;;;;5069812;28;20032;-57
2021/01/18 07:12:01;;;;;;;19.65;10.27;;;27.60;65.50;;;;;;5066793;28;20063;-59
2021/01/18 07:14:31;;;;;;;20.00;11.68;;;27.60;66.30;;;;;;5069048;28;20051;-55
2021/01/18 07:17:12;;;;;;;15.75;10.20;;;27.50;66.10;;;;;;5064646;28;20033;-56
2021/01/18 07:19:49;;;;;;;22.15;12.60;;;27.50;66.30;;;;;;5064611;28;20060;-54
2021/01/18 07:22:31;;;;;;;18.50;11.75;;;27.50;66.20;;;;;;5067936;28;20036;-52
2021/01/18 07:25:04;;;;;;;23.73;14.32;;;27.40;66.80;;;;;;5067328;28;20028;-52
2021/01/18 07:27:44;;;;;;;14.23;9.40;;;27.40;65.90;;;;;;5064239;28;20028;-48
2021/01/18 07:30:12;;;;;;;17.80;10.02;;;27.40;65.10;;;;;;5062666;28;20104;-61
2021/01/18 07:32:39;;;;;;;15.55;8.27;;;27.40;62.00;;;;;;5068893;28;20032;-62
2021/01/18 07:35:11;;;;;;;18.13;8.90;;;27.50;61.40;;;;;;5065547;28;20102;-59
2021/01/18 07:37:38;;;;;;;17.42;8.82;;;27.50;61.80;;;;;;5066978;28;20024;-57
2021/01/18 07:40:17;;;;;;;17.13;5.95;;;27.50;61.20;;;;;;5072630;28;20123;-62
2021/01/18 07:42:44;;;;;;;15.70;5.45;;;27.40;60.30;;;;;;5069313;28;20032;-56
2021/01/18 07:45:12;;;;;;;9.40;4.68;;;27.40;59.20;;;;;;5070715;28;20111;-58
2021/01/18 07:48:00;;;;;;;11.05;4.75;;;27.40;60.70;;;;;;5069519;28;20120;-60
2021/01/18 07:50:36;;;;;;;12.57;5.13;;;27.40;59.50;;;;;;5071937;28;20024;-60
2021/01/18 07:53:06;;;;;;;18.70;4.43;;;27.40;62.90;;;;;;5071614;28;20036;-57
2021/01/18 07:55:35;;;;;;;17.70;4.30;;;27.30;58.00;;;;;;5067268;28;20036;-57
2021/01/18 07:58:16;;;;;;;17.10;4.90;;;27.30;59.90;;;;;;5072104;28;20036;-57
2021/01/18 08:00:44;;;;;;;12.20;4.32;;;27.30;60.70;;;;;;5071965;28;20511;-61
2021/01/18 08:03:12;;;;;;;16.88;4.30;;;27.20;60.70;;;;;;5068625;28;20028;-57
2021/01/18 08:05:44;;;;;;;12.07;4.88;;;27.20;62.10;;;;;;5065259;28;20043;-56
2021/01/18 08:08:15;;;;;;;12.85;4.88;;;27.10;64.40;;;;;;5069794;28;20060;-53
2021/01/18 08:11:02;;;;;;;13.45;4.35;;;27.20;63.00;;;;;;5068705;28;20036;-55
2021/01/18 08:13:47;;;;;;;9.63;4.55;;;27.20;63.80;;;;;;5070209;28;20024;-56
2021/01/18 08:16:36;;;;;;;10.75;4.25;;;27.10;64.10;;;;;;5066725;28;20024;-53
2021/01/18 08:19:30;;;;;;;10.57;4.72;;;27.20;66.00;;;;;;5070492;28;20119;-50
2021/01/18 08:21:59;;;;;;;14.85;5.03;;;27.20;66.80;;;;;;5068539;28;20487;-56
2021/01/18 08:24:29;;;;;;;11.65;4.47;;;27.20;66.20;;;;;;5070671;28;20054;-56
2021/01/18 08:27:06;;;;;;;9.48;3.90;;;27.10;66.90;;;;;;5067747;28;20028;-55
2021/01/18 08:29:40;;;;;;;14.68;5.20;;;27.10;66.80;;;;;;5072662;28;20032;-61
2021/01/18 08:32:35;;;;;;;10.93;4.65;;;27.10;67.90;;;;;;5074030;28;20078;-58
2021/01/18 08:35:02;;;;;;;14.40;4.30;;;27.10;69.20;;;;;;5073893;28;20069;-60
2021/01/18 08:37:37;;;;;;;16.77;4.50;;;27.10;69.10;;;;;;5074070;28;20031;-63
2021/01/18 08:40:13;;;;;;;16.50;4.95;;;27.10;67.70;;;;;;5069919;28;20057;-61
2021/01/18 08:42:42;;;;;;;13.32;4.47;;;27.00;67.60;;;;;;5071917;28;20028;-64
2021/01/18 08:45:30;;;;;;;14.00;5.22;;;27.00;68.90;;;;;;5073142;28;20138;-61
2021/01/18 08:48:02;;;;;;;12.05;4.00;;;27.00;68.10;;;;;;5073323;28;20043;-61
2021/01/18 08:50:54;;;;;;;11.07;3.80;;;26.90;67.90;;;;;;5071518;28;20036;-62
2021/01/18 08:53:30;;;;;;;14.85;3.97;;;26.80;66.80;;;;;;5072725;28;20105;-60
2021/01/18 08:56:26;;;;;;;15.23;5.18;;;26.70;68.50;;;;;;5072858;28;20047;-62
2021/01/18 08:58:54;;;;;;;12.25;3.53;;;26.70;68.70;;;;;;5073527;28;20032;-61
2021/01/18 09:01:26;;;;;;;13.30;4.55;;;26.70;69.40;;;;;;5072137;28;20115;-60
2021/01/18 09:04:00;;;;;;;18.80;3.60;;;26.60;69.30;;;;;;5073243;28;20043;-62
2021/01/18 09:06:28;;;;;;;16.90;3.83;;;26.60;70.00;;;;;;5073513;28;20048;-59
2021/01/18 09:09:09;;;;;;;13.82;3.78;;;26.60;69.60;;;;;;5073572;28;20021;-62
2021/01/18 09:11:37;;;;;;;10.48;3.13;;;26.50;71.30;;;;;;5072605;28;20025;-60
2021/01/18 09:14:05;;;;;;;15.55;3.90;;;26.60;71.20;;;;;;5073312;28;20052;-61
2021/01/18 09:16:32;;;;;;;15.75;4.03;;;26.50;70.20;;;;;;5073121;28;20051;-60
2021/01/18 09:19:06;;;;;;;19.38;3.90;;;26.50;71.80;;;;;;5073471;28;20059;-59
2021/01/18 09:21:34;;;;;;;8.82;3.47;;;26.50;70.40;;;;;;5072684;28;20045;-60
2021/01/18 09:24:08;;;;;;;12.90;3.58;;;26.40;70.10;;;;;;5073246;28;20035;-60
2021/01/18 09:26:36;;;;;;;10.70;3.80;;;26.40;71.60;;;;;;5072985;28;20028;-61
2021/01/18 09:29:03;;;;;;;21.00;4.55;;;26.40;73.20;;;;;;5072931;28;20028;-61
2021/01/18 09:31:31;;;;;;;13.20;4.05;;;26.50;74.80;;;;;;5072903;28;20033;-58
2021/01/18 09:34:11;;;;;;;9.45;3.72;;;26.40;71.80;;;;;;5072885;28;20506;-59
2021/01/18 09:36:40;;;;;;;11.77;3.28;;;26.40;73.00;;;;;;5072988;28;20019;-60
2021/01/18 09:39:17;;;;;;;18.23;3.67;;;26.40;71.40;;;;;;5072818;28;20029;-62
2021/01/18 09:41:45;;;;;;;16.48;4.20;;;26.20;73.00;;;;;;5072680;28;20067;-60
2021/01/18 09:44:14;;;;;;;17.30;3.83;;;26.30;74.10;;;;;;5072795;28;20025;-64
2021/01/18 09:46:43;;;;;;;12.02;3.40;;;26.20;72.90;;;;;;5073049;28;20383;-63
2021/01/18 09:49:10;;;;;;;13.25;3.97;;;26.30;73.90;;;;;;5071156;28;20046;-59
2021/01/18 09:51:38;;;;;;;12.40;4.20;;;26.30;73.80;;;;;;5061084;28;20419;-56
2021/01/18 09:54:06;;;;;;;13.77;4.07;;;26.30;73.90;;;;;;5066779;28;20021;-61
2021/01/18 09:56:35;;;;;;;8.32;3.15;;;26.30;73.80;;;;;;5064442;28;20044;-49
2021/01/18 09:59:07;;;;;;;12.75;3.38;;;26.40;74.10;;;;;;5064768;28;20044;-61
2021/01/18 10:01:38;;;;;;;6.35;3.20;;;26.40;73.90;;;;;;5062800;28;20061;-56
2021/01/18 10:04:08;;;;;;;10.95;3.72;;;26.40;74.00;;;;;;5065174;28;20029;-61
2021/01/18 10:06:37;;;;;;;11.88;3.90;;;26.40;74.00;;;;;;5066370;28;20024;-63
2021/01/18 10:09:13;;;;;;;11.65;3.70;;;26.40;74.10;;;;;;5062506;28;20040;-62
2021/01/18 10:11:44;;;;;;;7.50;3.20;;;26.40;74.20;;;;;;5066519;28;20039;-64
2021/01/18 10:14:24;;;;;;;6.50;3.38;;;26.40;74.10;;;;;;5065652;28;20052;-61
2021/01/18 10:17:04;;;;;;;10.50;3.90;;;26.40;74.30;;;;;;5066558;28;20491;-55
2021/01/18 10:19:33;;;;;;;12.77;3.45;;;26.40;74.30;;;;;;5063767;28;20072;-54
2021/01/18 10:22:03;;;;;;;8.10;2.95;;;26.40;74.30;;;;;;5066427;28;20655;-60
2021/01/18 10:24:35;;;;;;;8.57;2.88;;;26.40;74.40;;;;;;5066402;28;20074;-57
2021/01/18 10:27:05;;;;;;;9.85;4.25;;;26.40;74.50;;;;;;5066579;28;20070;-62
2021/01/18 10:29:33;;;;;;;11.48;4.00;;;26.30;74.40;;;;;;5067304;28;20540;-62
2021/01/18 10:32:00;;;;;;;11.23;4.55;;;26.30;74.10;;;;;;5069145;28;20106;-61
2021/01/18 10:34:30;;;;;;;7.75;3.30;;;26.40;74.20;;;;;;5069075;28;20454;-60
2021/01/18 10:37:15;;;;;;;10.20;3.53;;;26.40;74.10;;;;;;5068205;28;20044;-60
2021/01/18 10:39:45;;;;;;;8.30;2.95;;;26.40;73.90;;;;;;5066912;28;20056;-63
2021/01/18 10:42:18;;;;;;;7.50;3.22;;;26.40;73.80;;;;;;5068295;28;20387;-62
2021/01/18 10:44:56;;;;;;;6.80;3.40;;;26.30;73.90;;;;;;5069034;28;20021;-64
2021/01/18 10:47:29;;;;;;;5.75;3.28;;;26.30;73.80;;;;;;5064410;28;20037;-61
2021/01/18 10:50:00;;;;;;;7.93;3.33;;;26.30;73.50;;;;;;5067884;28;20333;-63
2021/01/18 10:52:42;;;;;;;6.85;3.03;;;26.30;73.80;;;;;;5068647;28;20025;-57
2021/01/18 10:55:14;;;;;;;6.53;3.80;;;26.30;73.70;;;;;;5068170;28;20037;-57
2021/01/18 10:57:48;;;;;;;12.27;3.47;;;26.30;73.40;;;;;;5064994;28;20438;-63
2021/01/18 11:00:22;;;;;;;14.68;3.08;;;26.30;73.60;;;;;;5067695;28;20127;-59
2021/01/18 11:03:05;;;;;;;5.97;3.00;;;26.30;74.10;;;;;;5068051;28;20572;-54
2021/01/18 11:05:38;;;;;;;8.25;2.97;;;26.30;73.40;;;;;;5068668;28;20332;-59
2021/01/18 11:08:08;;;;;;;11.57;2.95;;;26.30;73.30;;;;;;5063308;28;20025;-59
2021/01/18 11:10:44;;;;;;;8.70;3.08;;;26.30;73.30;;;;;;5069197;28;20039;-48
2021/01/18 11:13:17;;;;;;;14.15;3.50;;;26.30;73.40;;;;;;5068525;28;20036;-61
2021/01/18 11:15:49;;;;;;;6.20;3.08;;;26.30;73.20;;;;;;5071756;28;20025;-51
2021/01/18 11:18:21;;;;;;;8.85;3.38;;;26.30;73.10;;;;;;5068027;28;20021;-59
2021/01/18 11:20:53;;;;;;;5.75;2.83;;;26.30;73.10;;;;;;5072152;28;20119;-57
2021/01/18 11:23:21;;;;;;;9.27;3.92;;;26.30;73.10;;;;;;5073222;28;20415;-50
2021/01/18 11:25:49;;;;;;;9.13;3.05;;;26.30;73.00;;;;;;5071877;28;20115;-55
2021/01/18 11:28:17;;;;;;;5.80;3.05;;;26.30;73.10;;;;;;5068564;28;20025;-55
2021/01/18 11:30:45;;;;;;;11.77;3.63;;;26.30;72.90;;;;;;5072571;28;20036;-60
2021/01/18 11:33:13;;;;;;;7.70;3.33;;;26.20;72.80;;;;;;5072735;28;20105;-57
2021/01/18 11:35:43;;;;;;;6.07;2.80;;;26.20;72.70;;;;;;5071901;28;20031;-54
2021/01/18 11:38:11;;;;;;;7.30;3.30;;;26.20;72.70;;;;;;5068047;28;20017;-60
2021/01/18 11:40:39;;;;;;;6.10;2.90;;;26.20;72.90;;;;;;5072647;28;20495;-63
2021/01/18 11:43:06;;;;;;;4.60;2.60;;;26.20;72.90;;;;;;5072479;28;20035;-61
2021/01/18 11:45:33;;;;;;;6.97;2.78;;;26.20;72.80;;;;;;5071135;28;20074;-60
2021/01/18 11:48:01;;;;;;;6.72;2.90;;;26.20;72.50;;;;;;5068537;28;20406;-61
2021/01/18 11:50:30;;;;;;;6.45;3.10;;;26.20;72.70;;;;;;5070633;28;20059;-61
2021/01/18 11:52:57;;;;;;;4.95;3.00;;;26.20;72.60;;;;;;5070455;28;20029;-59
2021/01/18 11:55:25;;;;;;;5.47;2.92;;;26.20;72.60;;;;;;5070392;28;20025;-61
2021/01/18 11:57:52;;;;;;;6.40;3.03;;;26.20;72.50;;;;;;5066791;28;20178;-62
2021/01/18 12:00:26;;;;;;;7.03;3.63;;;26.20;72.50;;;;;;5070847;28;20132;-61
2021/01/18 12:02:55;;;;;;;7.65;3.28;;;26.20;72.40;;;;;;5070623;28;20025;-56
2021/01/18 12:05:25;;;;;;;7.85;3.28;;;26.10;72.60;;;;;;5071489;28;20082;-59
2021/01/18 12:07:53;;;;;;;7.55;3.20;;;26.10;72.20;;;;;;5068132;28;20032;-60
2021/01/18 12:10:21;;;;;;;7.78;2.92;;;26.10;72.50;;;;;;5071569;28;20036;-62
2021/01/18 12:12:49;;;;;;;6.90;3.00;;;26.10;72.60;;;;;;5070960;28;20040;-62
2021/01/18 12:15:17;;;;;;;5.07;2.80;;;26.10;72.60;;;;;;5071163;28;20082;-61
2021/01/18 12:17:45;;;;;;;6.80;3.50;;;26.10;72.80;;;;;;5066800;28;20017;-59
2021/01/18 12:20:20;;;;;;;4.50;2.47;;;26.10;72.50;;;;;;5071853;28;20445;-60
2021/01/18 12:22:51;;;;;;;6.90;2.90;;;26.10;72.50;;;;;;5071564;28;20069;-60
2021/01/18 12:25:19;;;;;;;4.97;2.65;;;26.10;72.60;;;;;;5070335;28;20414;-59
2021/01/18 12:27:54;;;;;;;4.20;2.72;;;26.10;72.60;;;;;;5067239;28;20020;-60
2021/01/18 12:30:23;;;;;;;7.50;3.03;;;26.10;72.50;;;;;;5071642;28;20025;-60
2021/01/18 12:32:50;;;;;;;4.90;2.90;;;26.10;72.70;;;;;;5070720;28;20126;-61
2021/01/18 12:35:18;;;;;;;6.82;2.67;;;26.10;72.70;;;;;;5071375;28;20027;-61
2021/01/18 12:37:46;;;;;;;6.90;3.00;;;26.10;72.70;;;;;;5067406;28;20044;-59
2021/01/18 12:40:14;;;;;;;5.15;2.63;;;26.10;72.70;;;;;;5069183;28;20032;-64
2021/01/18 12:42:47;;;;;;;6.57;3.20;;;26.10;72.90;;;;;;5071524;28;20140;-56
2021/01/18 12:45:17;;;;;;;10.68;3.05;;;26.10;73.20;;;;;;5071253;28;20498;-54
2021/01/18 12:47:45;;;;;;;5.53;2.42;;;26.10;73.10;;;;;;5066968;28;20032;-62
2021/01/18 12:50:13;;;;;;;5.28;2.75;;;26.10;73.00;;;;;;5071591;28;20051;-60
2021/01/18 12:52:43;;;;;;;7.90;3.10;;;26.00;73.00;;;;;;5071465;28;20094;-58
2021/01/18 12:55:12;;;;;;;11.00;3.20;;;26.00;72.90;;;;;;5070326;28;20039;-61
2021/01/18 12:57:39;;;;;;;9.10;2.80;;;26.00;73.00;;;;;;5065290;28;20123;-61
2021/01/18 13:00:08;;;;;;;7.53;2.88;;;26.00;73.00;;;;;;5071265;28;20075;-60
2021/01/18 13:02:42;;;;;;;3.90;2.25;;;26.00;73.00;;;;;;5070949;28;20471;-57
2021/01/18 13:05:09;;;;;;;4.68;2.70;;;26.00;73.30;;;;;;5068492;28;20063;-60